createdAt,value
2023-09-06T00:02:10.564Z,12.40
2023-09-06T00:04:53.080Z,12.40
2023-09-06T00:07:35.876Z,12.40
2023-09-06T00:10:18.582Z,12.40
2023-09-06T00:13:01.247Z,12.30
2023-09-06T00:15:43.928Z,12.30
2023-09-06T00:18:28.159Z,12.30
2023-09-06T00:21:11.221Z,12.30
2023-09-06T00:23:54.167Z,12.20
2023-09-06T00:26:36.492Z,12.20
2023-09-06T00:29:19.249Z,12.20
2023-09-06T00:32:01.578Z,12.20
2023-09-06T00:34:46.509Z,12.20
2023-09-06T00:37:38.995Z,12.10
2023-09-06T00:40:25.190Z,12.10
2023-09-06T00:43:09.385Z,12.10
2023-09-06T00:45:53.050Z,12.10
2023-09-06T00:48:37.282Z,12.00
2023-09-06T00:51:20.921Z,12.00
2023-09-06T00:54:03.532Z,12.00
2023-09-06T00:56:46.301Z,12.00
2023-09-06T00:59:30.059Z,11.90
2023-09-06T01:02:12.796Z,11.90
2023-09-06T01:04:55.575Z,11.90
2023-09-06T01:07:40.226Z,11.80
2023-09-06T01:10:22.677Z,11.80
2023-09-06T01:13:05.426Z,11.80
2023-09-06T01:15:49.896Z,11.80
2023-09-06T01:18:33.041Z,11.80
2023-09-06T01:21:18.505Z,11.80
2023-09-06T01:24:03.863Z,11.80
2023-09-06T01:26:46.992Z,11.80
2023-09-06T01:29:30.642Z,11.80
2023-09-06T01:32:13.339Z,11.80
2023-09-06T01:34:56.326Z,11.80
2023-09-06T01:37:38.934Z,11.80
2023-09-06T01:40:22.873Z,11.80
2023-09-06T01:43:05.383Z,11.70
2023-09-06T01:45:52.937Z,11.70
2023-09-06T01:48:37.419Z,11.70
2023-09-06T01:51:20.124Z,11.70
2023-09-06T01:54:05.510Z,11.60
2023-09-06T01:56:48.054Z,11.60
2023-09-06T01:59:30.342Z,11.60
2023-09-06T02:02:12.951Z,11.60
2023-09-06T02:04:55.475Z,11.50
2023-09-06T02:07:37.973Z,11.50
2023-09-06T02:10:20.278Z,11.50
2023-09-06T02:13:02.947Z,11.50
2023-09-06T02:15:46.137Z,11.50
2023-09-06T02:18:29.285Z,11.50
2023-09-06T02:21:11.563Z,11.40
2023-09-06T02:23:54.071Z,11.40
2023-09-06T02:26:38.265Z,11.40
2023-09-06T02:29:20.830Z,11.40
2023-09-06T02:32:03.262Z,11.40
2023-09-06T02:34:45.864Z,11.40
2023-09-06T02:37:29.952Z,11.40
2023-09-06T02:40:17.125Z,11.50
2023-09-06T02:42:59.767Z,11.40
2023-09-06T02:45:51.062Z,11.40
2023-09-06T02:48:34.977Z,11.40
2023-09-06T02:51:17.711Z,11.40
2023-09-06T02:54:03.192Z,11.40
2023-09-06T02:56:46.872Z,11.30
2023-09-06T02:59:29.414Z,11.40
2023-09-06T03:02:14.055Z,11.40
2023-09-06T03:05:05.090Z,11.40
2023-09-06T03:07:54.924Z,11.30
2023-09-06T03:10:47.151Z,11.30
2023-09-06T03:13:32.628Z,11.20
2023-09-06T03:16:15.234Z,11.30
2023-09-06T03:19:00.843Z,11.20
2023-09-06T03:21:43.318Z,11.20
2023-09-06T03:24:26.709Z,11.20
2023-09-06T03:27:09.403Z,11.20
2023-09-06T03:29:52.972Z,11.20
2023-09-06T03:32:39.562Z,11.10
2023-09-06T03:35:23.631Z,11.10
2023-09-06T03:38:09.984Z,11.10
2023-09-06T03:40:52.882Z,11.10
2023-09-06T03:43:35.191Z,11.00
2023-09-06T03:46:20.756Z,11.00
2023-09-06T03:49:08.133Z,11.00
2023-09-06T03:51:51.605Z,11.00
2023-09-06T03:54:37.395Z,11.00
2023-09-06T03:57:20.052Z,11.00
2023-09-06T04:00:21.196Z,11.00
2023-09-06T04:03:05.342Z,11.00
2023-09-06T04:05:52.206Z,11.00
2023-09-06T04:08:37.882Z,11.00
2023-09-06T04:11:21.042Z,11.10
2023-09-06T04:14:03.828Z,11.10
2023-09-06T04:16:46.136Z,11.10
2023-09-06T04:19:29.357Z,11.10
2023-09-06T04:22:14.272Z,11.10
2023-09-06T04:24:57.668Z,11.20
2023-09-06T04:27:40.716Z,11.20
2023-09-06T04:30:25.233Z,11.20
2023-09-06T04:33:11.501Z,11.20
2023-09-06T04:35:54.872Z,11.20
2023-09-06T04:38:39.378Z,11.30
2023-09-06T04:41:24.758Z,11.40
2023-09-06T04:44:11.568Z,11.40
2023-09-06T04:46:55.811Z,11.50
2023-09-06T04:49:40.617Z,11.70
2023-09-06T04:52:25.797Z,11.80
2023-09-06T04:55:11.768Z,11.80
2023-09-06T04:57:55.192Z,11.80
2023-09-06T05:00:40.489Z,12.00
2023-09-06T05:03:23.692Z,12.60
2023-09-06T05:06:10.251Z,13.10
2023-09-06T05:08:52.906Z,13.70
2023-09-06T05:11:39.027Z,14.20
2023-09-06T05:14:22.494Z,14.60
2023-09-06T05:17:05.049Z,15.10
2023-09-06T05:19:53.090Z,15.40
2023-09-06T05:22:35.440Z,15.80
2023-09-06T05:25:18.344Z,16.00
2023-09-06T05:28:06.515Z,16.30
2023-09-06T05:30:49.585Z,16.60
2023-09-06T05:33:33.366Z,16.90
2023-09-06T05:36:17.117Z,17.20
2023-09-06T05:38:59.464Z,17.50
2023-09-06T05:41:42.750Z,17.60
2023-09-06T05:44:25.035Z,17.80
2023-09-06T05:47:07.764Z,18.00
2023-09-06T05:49:53.621Z,18.30
2023-09-06T05:52:36.587Z,18.40
2023-09-06T05:55:19.326Z,18.60
2023-09-06T05:58:02.006Z,18.50
2023-09-06T06:00:45.205Z,18.70
2023-09-06T06:03:27.977Z,18.80
2023-09-06T06:06:12.348Z,19.00
2023-09-06T06:08:55.356Z,19.20
2023-09-06T06:11:38.543Z,19.30
2023-09-06T06:14:21.429Z,19.40
2023-09-06T06:17:06.478Z,19.50
2023-09-06T06:19:50.072Z,19.70
2023-09-06T06:22:35.382Z,19.70
2023-09-06T06:25:18.106Z,19.90
2023-09-06T06:28:00.486Z,20.10
2023-09-06T06:30:43.980Z,20.30
2023-09-06T06:33:26.265Z,20.40
2023-09-06T06:36:08.886Z,20.60
2023-09-06T06:38:51.208Z,20.60
2023-09-06T06:41:33.807Z,20.70
2023-09-06T06:44:16.194Z,20.90
2023-09-06T06:46:58.767Z,21.00
2023-09-06T06:49:41.303Z,21.30
2023-09-06T06:52:24.263Z,21.50
2023-09-06T06:55:06.913Z,21.60
2023-09-06T06:57:49.527Z,21.70
2023-09-06T07:00:35.949Z,21.80
2023-09-06T07:03:18.607Z,21.90
2023-09-06T07:06:00.950Z,22.00
2023-09-06T07:08:43.579Z,22.10
2023-09-06T07:11:26.231Z,22.20
2023-09-06T07:14:08.994Z,22.20
2023-09-06T07:16:51.524Z,22.30
2023-09-06T07:19:35.236Z,22.40
2023-09-06T07:22:17.640Z,22.40
2023-09-06T07:25:00.358Z,22.60
2023-09-06T07:27:44.807Z,22.80
2023-09-06T07:30:28.084Z,22.80
2023-09-06T07:33:11.149Z,22.90
2023-09-06T07:35:54.015Z,22.90
2023-09-06T07:38:36.315Z,23.10
2023-09-06T07:41:20.834Z,23.10
2023-09-06T07:44:03.206Z,23.20
2023-09-06T07:46:49.886Z,23.30
2023-09-06T07:49:32.930Z,23.40
2023-09-06T07:52:15.661Z,23.60
2023-09-06T07:54:59.590Z,23.60
2023-09-06T07:57:42.215Z,23.60
2023-09-06T08:00:24.596Z,23.60
2023-09-06T08:03:07.564Z,23.60
2023-09-06T08:05:50.077Z,23.70
2023-09-06T08:08:32.772Z,23.80
2023-09-06T08:11:19.219Z,23.80
2023-09-06T08:14:03.206Z,23.80
2023-09-06T08:16:46.224Z,23.80
2023-09-06T08:19:28.992Z,23.90
2023-09-06T08:22:11.960Z,23.90
2023-09-06T08:24:54.672Z,24.00
2023-09-06T08:27:36.992Z,24.00
2023-09-06T08:30:21.824Z,24.00
2023-09-06T08:33:05.191Z,24.10
2023-09-06T08:35:48.034Z,24.20
2023-09-06T08:38:31.744Z,24.10
2023-09-06T08:41:15.142Z,24.10
2023-09-06T08:44:01.103Z,24.20
2023-09-06T08:46:46.220Z,24.20
2023-09-06T08:49:29.161Z,24.30
2023-09-06T08:52:15.892Z,24.40
2023-09-06T08:54:58.349Z,24.20
2023-09-06T08:57:42.910Z,24.20
2023-09-06T09:00:25.474Z,24.20
2023-09-06T09:03:08.270Z,24.30
2023-09-06T09:05:50.705Z,24.20
2023-09-06T09:08:34.273Z,24.20
2023-09-06T09:11:21.480Z,24.10
2023-09-06T09:14:04.610Z,24.20
2023-09-06T09:16:57.532Z,24.30
2023-09-06T09:19:40.255Z,24.30
2023-09-06T09:22:28.477Z,24.30
2023-09-06T09:25:17.039Z,24.30
2023-09-06T09:28:00.738Z,24.30
2023-09-06T09:30:43.652Z,24.30
2023-09-06T09:33:30.456Z,24.40
2023-09-06T09:36:16.753Z,24.60
2023-09-06T09:38:59.157Z,24.60
2023-09-06T09:41:58.542Z,24.70
2023-09-06T09:44:42.772Z,24.70
2023-09-06T09:50:14.994Z,24.60
2023-09-06T09:53:05.382Z,24.50
2023-09-06T09:55:58.987Z,24.20
2023-09-06T09:58:41.975Z,24.00
2023-09-06T10:01:24.324Z,24.10
2023-09-06T10:04:08.071Z,24.30
2023-09-06T10:06:50.596Z,24.50
2023-09-06T10:09:35.454Z,24.80
2023-09-06T10:12:18.322Z,24.90
2023-09-06T10:15:01.520Z,24.90
2023-09-06T10:17:43.897Z,24.80
2023-09-06T10:20:28.234Z,24.70
2023-09-06T10:23:12.869Z,24.80
2023-09-06T10:25:55.568Z,24.90
2023-09-06T10:28:38.002Z,25.10
2023-09-06T10:31:51.405Z,25.20
2023-09-06T10:34:37.657Z,25.20
2023-09-06T10:37:20.302Z,25.20
2023-09-06T10:40:03.384Z,25.20
2023-09-06T10:42:46.907Z,25.20
2023-09-06T10:45:29.292Z,24.80
2023-09-06T10:48:12.192Z,24.60
2023-09-06T10:51:12.487Z,24.70
2023-09-06T10:53:57.617Z,24.60
2023-09-06T10:56:40.433Z,24.60
2023-09-06T10:59:23.133Z,24.50
2023-09-06T11:02:32.346Z,24.50
2023-09-06T11:05:33.537Z,24.50
2023-09-06T11:08:28.044Z,24.50
2023-09-06T11:11:12.098Z,24.50
2023-09-06T11:13:57.581Z,24.50
2023-09-06T11:16:47.886Z,24.60
2023-09-06T11:19:31.223Z,24.90
2023-09-06T11:22:14.222Z,25.00
2023-09-06T11:24:56.558Z,25.00
2023-09-06T11:27:39.824Z,24.80
2023-09-06T11:30:27.898Z,24.90
2023-09-06T11:33:12.704Z,24.70
2023-09-06T11:36:00.005Z,24.60
2023-09-06T11:38:44.698Z,24.70
2023-09-06T11:41:27.733Z,24.70
2023-09-06T11:44:14.322Z,24.70
2023-09-06T11:46:56.722Z,24.70
2023-09-06T11:49:41.764Z,24.70
2023-09-06T11:52:24.914Z,24.70
2023-09-06T11:55:10.335Z,24.80
2023-09-06T11:57:59.006Z,24.80
2023-09-06T12:00:46.710Z,25.00
2023-09-06T12:03:32.076Z,25.00
2023-09-06T12:06:14.701Z,24.90
2023-09-06T12:08:56.996Z,25.00
2023-09-06T12:11:40.223Z,25.00
2023-09-06T12:14:23.350Z,24.90
2023-09-06T12:17:07.446Z,25.00
2023-09-06T12:19:59.322Z,25.00
2023-09-06T12:22:41.944Z,25.00
2023-09-06T12:25:25.622Z,25.00
2023-09-06T12:28:08.283Z,25.00
2023-09-06T12:30:56.137Z,25.00
2023-09-06T12:33:38.827Z,25.00
2023-09-06T12:36:21.138Z,24.80
2023-09-06T12:39:07.676Z,24.80
2023-09-06T12:41:50.163Z,24.80
2023-09-06T12:44:32.876Z,24.80
2023-09-06T12:47:17.809Z,25.00
2023-09-06T12:50:01.191Z,25.10
2023-09-06T12:52:43.562Z,25.10
2023-09-06T12:55:27.459Z,25.10
2023-09-06T12:58:09.729Z,25.10
2023-09-06T13:00:53.104Z,25.10
2023-09-06T13:03:35.823Z,25.20
2023-09-06T13:06:18.656Z,25.30
2023-09-06T13:09:01.159Z,25.20
2023-09-06T13:11:43.872Z,25.20
2023-09-06T13:14:26.321Z,25.10
2023-09-06T13:17:09.262Z,25.10
2023-09-06T13:19:52.705Z,25.10
2023-09-06T13:22:35.320Z,25.10
2023-09-06T13:25:17.743Z,25.10
2023-09-06T13:28:00.453Z,25.10
2023-09-06T13:30:42.818Z,25.10
2023-09-06T13:33:28.606Z,25.10
2023-09-06T13:36:11.940Z,25.00
2023-09-06T13:38:57.725Z,25.10
2023-09-06T13:41:42.898Z,25.20
2023-09-06T13:44:32.458Z,25.30
2023-09-06T13:47:18.508Z,25.10
2023-09-06T13:50:01.128Z,25.10
2023-09-06T13:52:43.815Z,25.10
2023-09-06T13:55:26.672Z,25.10
2023-09-06T13:58:11.178Z,25.10
2023-09-06T14:00:57.150Z,25.10
2023-09-06T14:03:41.375Z,25.20
2023-09-06T14:06:24.174Z,25.20
2023-09-06T14:09:09.360Z,25.20
2023-09-06T14:11:52.734Z,25.10
2023-09-06T14:14:35.893Z,25.20
2023-09-06T14:17:19.022Z,25.20
2023-09-06T14:20:01.375Z,25.10
2023-09-06T14:22:44.192Z,25.00
2023-09-06T14:25:26.506Z,25.00
2023-09-06T14:28:10.077Z,24.90
2023-09-06T14:30:55.305Z,24.80
2023-09-06T14:33:38.809Z,24.80
2023-09-06T14:36:21.322Z,24.80
2023-09-06T14:39:07.217Z,24.70
2023-09-06T14:41:51.427Z,24.70
2023-09-06T14:44:35.548Z,24.70
2023-09-06T14:47:19.335Z,24.70
2023-09-06T14:50:02.260Z,24.70
2023-09-06T14:52:44.775Z,24.70
2023-09-06T14:55:29.664Z,24.70
2023-09-06T14:58:12.516Z,24.70
2023-09-06T15:00:56.129Z,24.70
2023-09-06T15:03:39.901Z,24.70
2023-09-06T15:06:22.875Z,24.80
2023-09-06T15:09:05.458Z,24.80
2023-09-06T15:11:48.126Z,24.80
2023-09-06T15:14:30.360Z,24.60
2023-09-06T15:17:12.886Z,24.60
2023-09-06T15:19:55.331Z,24.50
2023-09-06T15:22:39.665Z,24.50
2023-09-06T15:25:23.584Z,24.50
2023-09-06T15:28:08.942Z,24.50
2023-09-06T15:30:51.635Z,24.50
2023-09-06T15:33:34.854Z,24.50
2023-09-06T15:36:17.349Z,24.40
2023-09-06T15:39:00.471Z,24.40
2023-09-06T15:41:45.433Z,24.40
2023-09-06T15:44:28.209Z,24.30
2023-09-06T15:47:10.677Z,24.30
2023-09-06T15:49:54.473Z,24.20
2023-09-06T15:52:36.685Z,24.20
2023-09-06T15:55:19.305Z,24.10
2023-09-06T15:58:01.665Z,24.10
2023-09-06T16:00:44.283Z,24.00
2023-09-06T16:03:27.858Z,24.00
2023-09-06T16:06:10.768Z,23.90
2023-09-06T16:08:53.819Z,23.80
2023-09-06T16:11:37.119Z,23.80
2023-09-06T16:14:19.473Z,23.80
2023-09-06T16:17:02.982Z,23.70
2023-09-06T16:19:46.105Z,23.70
2023-09-06T16:22:28.768Z,23.60
2023-09-06T16:25:11.850Z,23.50
2023-09-06T16:27:54.515Z,23.50
2023-09-06T16:30:39.539Z,23.40
2023-09-06T16:33:22.286Z,23.30
2023-09-06T16:36:07.675Z,23.20
2023-09-06T16:38:50.405Z,23.00
2023-09-06T16:41:32.687Z,23.00
2023-09-06T16:44:16.370Z,22.80
2023-09-06T16:46:59.800Z,22.70
2023-09-06T16:49:48.368Z,22.60
2023-09-06T16:52:30.694Z,22.50
2023-09-06T16:55:15.096Z,22.30
2023-09-06T16:57:57.616Z,22.20
2023-09-06T17:00:42.556Z,22.10
2023-09-06T17:03:26.536Z,21.90
2023-09-06T17:06:11.119Z,21.80
2023-09-06T17:08:53.445Z,21.60
2023-09-06T17:11:44.699Z,21.50
2023-09-06T17:14:27.138Z,21.30
2023-09-06T17:17:10.027Z,21.20
2023-09-06T17:19:52.371Z,21.10
2023-09-06T17:22:35.031Z,20.90
2023-09-06T17:25:18.436Z,20.80
2023-09-06T17:28:04.293Z,20.70
2023-09-06T17:30:48.206Z,20.60
2023-09-06T17:33:30.856Z,20.50
2023-09-06T17:36:13.585Z,20.30
2023-09-06T17:38:56.287Z,20.20
2023-09-06T17:41:41.342Z,20.00
2023-09-06T17:44:23.987Z,20.00
2023-09-06T17:47:08.233Z,19.80
2023-09-06T17:49:50.893Z,19.70
2023-09-06T17:52:33.376Z,19.60
2023-09-06T17:55:21.011Z,19.50
2023-09-06T17:58:07.611Z,19.40
2023-09-06T18:00:50.670Z,19.30
2023-09-06T18:03:33.942Z,19.20
2023-09-06T18:06:20.860Z,19.10
2023-09-06T18:09:08.864Z,19.00
2023-09-06T18:11:53.942Z,18.90
2023-09-06T18:14:36.327Z,18.80
2023-09-06T18:17:19.020Z,18.70
2023-09-06T18:20:01.490Z,18.70
2023-09-06T18:22:46.550Z,18.50
2023-09-06T18:25:28.965Z,18.50
2023-09-06T18:28:11.728Z,18.40
2023-09-06T18:30:54.504Z,18.40
2023-09-06T18:33:38.542Z,18.30
2023-09-06T18:36:21.136Z,18.20
2023-09-06T18:39:04.003Z,18.10
2023-09-06T18:41:46.606Z,18.00
2023-09-06T18:44:29.323Z,17.90
2023-09-06T18:47:11.682Z,17.90
2023-09-06T18:49:54.528Z,17.80
2023-09-06T18:52:38.505Z,17.70
2023-09-06T18:55:22.021Z,17.70
2023-09-06T18:58:06.433Z,17.60
2023-09-06T19:00:49.493Z,17.60
2023-09-06T19:03:31.997Z,17.60
2023-09-06T19:06:15.060Z,17.50
2023-09-06T19:08:57.838Z,17.40
2023-09-06T19:11:40.565Z,17.40
2023-09-06T19:14:23.066Z,17.40
2023-09-06T19:17:05.805Z,17.30
2023-09-06T19:19:48.171Z,17.20
2023-09-06T19:22:31.921Z,17.10
2023-09-06T19:25:14.695Z,17.10
2023-09-06T19:27:57.500Z,17.00
2023-09-06T19:30:39.807Z,16.90
2023-09-06T19:33:22.456Z,16.90
2023-09-06T19:36:04.949Z,16.80
2023-09-06T19:38:47.819Z,16.80
2023-09-06T19:41:30.144Z,16.70
2023-09-06T19:44:12.771Z,16.70
2023-09-06T19:46:56.829Z,16.60
2023-09-06T19:49:39.355Z,16.70
2023-09-06T19:52:21.772Z,16.60
2023-09-06T19:55:04.925Z,16.60
2023-09-06T19:57:47.281Z,16.50
2023-09-06T20:00:29.859Z,16.40
2023-09-06T20:03:12.243Z,16.30
2023-09-06T20:05:57.690Z,16.30
2023-09-06T20:08:40.256Z,16.20
2023-09-06T20:11:23.621Z,16.20
2023-09-06T20:14:09.433Z,16.10
2023-09-06T20:16:51.999Z,16.10
2023-09-06T20:19:34.200Z,16.10
2023-09-06T20:22:16.991Z,16.00
2023-09-06T20:24:59.233Z,16.00
2023-09-06T20:27:41.811Z,16.00
2023-09-06T20:30:24.069Z,15.90
2023-09-06T20:33:06.893Z,15.90
2023-09-06T20:35:49.411Z,15.90
2023-09-06T20:38:33.305Z,15.90
2023-09-06T20:41:15.826Z,15.90
2023-09-06T20:43:58.357Z,15.90
2023-09-06T20:46:40.871Z,15.90
2023-09-06T20:49:23.501Z,15.90
2023-09-06T20:52:06.287Z,15.80
2023-09-06T20:54:48.999Z,15.80
2023-09-06T20:57:31.261Z,15.70
2023-09-06T21:00:15.421Z,15.70
2023-09-06T21:02:58.559Z,15.60
2023-09-06T21:05:41.231Z,15.60
2023-09-06T21:08:23.498Z,15.50
2023-09-06T21:11:06.431Z,15.50
2023-09-06T21:13:48.756Z,15.40
2023-09-06T21:16:31.390Z,15.40
2023-09-06T21:19:13.614Z,15.30
2023-09-06T21:21:56.548Z,15.30
2023-09-06T21:24:39.025Z,15.30
2023-09-06T21:27:21.711Z,15.20
2023-09-06T21:30:04.169Z,15.10
2023-09-06T21:32:46.930Z,15.10
2023-09-06T21:35:32.788Z,15.00
2023-09-06T21:38:15.270Z,15.00
2023-09-06T21:40:59.149Z,15.00
2023-09-06T21:43:41.679Z,14.90
2023-09-06T21:46:24.056Z,14.90
2023-09-06T21:49:06.654Z,14.90
2023-09-06T21:51:48.925Z,14.80
2023-09-06T21:54:32.402Z,14.80
2023-09-06T21:57:14.639Z,14.80
2023-09-06T21:59:57.401Z,14.70
2023-09-06T22:02:39.635Z,14.70
2023-09-06T22:05:40.850Z,14.70
2023-09-06T22:08:41.590Z,14.60
2023-09-06T22:11:42.659Z,14.60
2023-09-06T22:14:24.853Z,14.60
2023-09-06T22:17:07.480Z,14.60
2023-09-06T22:19:49.895Z,14.50
2023-09-06T22:22:33.112Z,14.40
2023-09-06T22:25:15.468Z,14.40
2023-09-06T22:28:05.486Z,14.40
2023-09-06T22:30:49.505Z,14.30
2023-09-06T22:33:32.243Z,14.30
2023-09-06T22:36:14.647Z,14.30
2023-09-06T22:38:57.214Z,14.20
2023-09-06T22:41:39.403Z,14.20
2023-09-06T22:44:21.918Z,14.20
2023-09-06T22:47:04.452Z,14.20
2023-09-06T22:49:47.324Z,14.20
2023-09-06T22:52:29.762Z,14.10
2023-09-06T22:55:13.167Z,14.10
2023-09-06T22:57:55.572Z,14.00
2023-09-06T23:00:39.128Z,14.00
2023-09-06T23:03:21.429Z,13.90
2023-09-06T23:06:10.066Z,13.90
2023-09-06T23:08:54.483Z,13.90
2023-09-06T23:11:37.084Z,13.90
2023-09-06T23:14:21.416Z,13.90
2023-09-06T23:17:09.228Z,13.90
2023-09-06T23:19:55.481Z,13.90
2023-09-06T23:22:42.733Z,13.90
2023-09-06T23:25:31.198Z,13.90
2023-09-06T23:28:21.767Z,13.80
2023-09-06T23:31:06.982Z,13.80
2023-09-06T23:33:53.663Z,13.80
2023-09-06T23:36:38.688Z,13.80
2023-09-06T23:39:23.035Z,13.80
2023-09-06T23:42:11.139Z,13.80
2023-09-06T23:44:53.955Z,13.70
2023-09-06T23:47:36.340Z,13.70
2023-09-06T23:50:19.173Z,13.70
2023-09-06T23:53:02.117Z,13.70
2023-09-06T23:55:44.662Z,13.70
2023-09-06T23:58:26.923Z,13.60
